createdAt,value
2018-03-24T00:02:14.290Z,2.50
2018-03-24T00:04:42.663Z,2.50
2018-03-24T00:07:10.204Z,2.50
2018-03-24T00:09:37.758Z,2.50
2018-03-24T00:12:06.101Z,2.40
2018-03-24T00:14:33.640Z,2.40
2018-03-24T00:17:01.172Z,2.40
2018-03-24T00:19:28.744Z,2.40
2018-03-24T00:21:56.384Z,2.40
2018-03-24T00:24:23.920Z,2.40
2018-03-24T00:26:51.860Z,2.30
2018-03-24T00:29:19.404Z,2.30
2018-03-24T00:31:46.944Z,2.30
2018-03-24T00:34:25.423Z,2.40
2018-03-24T00:39:38.385Z,2.30
2018-03-24T00:42:05.952Z,2.20
2018-03-24T00:44:33.504Z,2.30
2018-03-24T00:47:01.128Z,2.30
2018-03-24T00:49:28.664Z,2.20
2018-03-24T00:51:56.208Z,2.20
2018-03-24T00:54:23.778Z,2.20
2018-03-24T00:56:51.720Z,2.20
2018-03-24T00:59:19.884Z,2.20
2018-03-24T01:01:47.461Z,2.20
2018-03-24T01:04:17.182Z,2.10
2018-03-24T01:06:44.728Z,2.10
2018-03-24T01:09:12.655Z,2.10
2018-03-24T01:11:40.241Z,2.00
2018-03-24T01:14:07.797Z,1.90
2018-03-24T01:16:35.404Z,1.90
2018-03-24T01:19:02.946Z,1.90
2018-03-24T01:21:30.511Z,1.90
2018-03-24T01:23:58.228Z,1.90
2018-03-24T02:47:00.907Z,0.90
2018-03-24T02:49:28.448Z,0.90
2018-03-24T02:51:56.006Z,0.90
2018-03-24T02:54:23.589Z,0.90
2018-03-24T02:56:51.143Z,0.90
2018-03-24T02:59:18.680Z,0.90
2018-03-24T03:01:46.269Z,0.90
2018-03-24T03:04:16.362Z,0.90
2018-03-24T03:06:43.913Z,0.90
2018-03-24T03:09:11.961Z,0.90
2018-03-24T03:11:39.533Z,0.90
2018-03-24T03:14:07.079Z,0.90
2018-03-24T03:16:35.413Z,1.00
2018-03-24T03:19:02.958Z,1.00
2018-03-24T03:21:42.436Z,1.00
2018-03-24T03:24:09.978Z,1.00
2018-03-24T03:26:37.519Z,0.90
2018-03-24T03:29:05.412Z,0.90
2018-03-24T03:31:32.952Z,0.90
2018-03-24T03:34:00.497Z,1.00
2018-03-24T03:36:28.060Z,1.00
2018-03-24T03:38:55.609Z,1.00
2018-03-24T03:41:23.174Z,0.90
2018-03-24T03:43:50.751Z,1.00
2018-03-24T03:46:18.294Z,0.90
2018-03-24T03:48:46.068Z,0.90
2018-03-24T03:51:15.970Z,0.90
2018-03-24T03:53:43.512Z,0.90
2018-03-24T03:56:11.055Z,0.90
2018-03-24T03:58:39.419Z,0.90
2018-03-24T04:01:06.957Z,0.90
2018-03-24T04:03:34.510Z,0.90
2018-03-24T04:06:02.097Z,0.80
2018-03-24T04:08:29.648Z,0.80
2018-03-24T04:10:57.196Z,0.70
2018-03-24T04:13:24.999Z,0.70
2018-03-24T04:15:52.549Z,0.70
2018-03-24T04:18:20.869Z,0.60
2018-03-24T04:20:48.486Z,0.60
2018-03-24T04:23:16.441Z,0.60
2018-03-24T04:25:44.038Z,0.50
2018-03-24T04:28:11.626Z,0.50
2018-03-24T04:30:39.175Z,0.50
2018-03-24T04:33:06.721Z,0.50
2018-03-24T04:35:34.365Z,0.40
2018-03-24T04:38:02.677Z,0.40
2018-03-24T04:40:30.231Z,0.40
2018-03-24T04:42:57.819Z,0.30
2018-03-24T04:45:25.367Z,0.40
2018-03-24T04:47:52.916Z,0.40
2018-03-24T04:50:20.999Z,0.40
2018-03-24T04:52:48.547Z,0.30
2018-03-24T04:55:17.355Z,0.30
2018-03-24T04:57:45.423Z,0.30
2018-03-24T05:00:23.702Z,0.30
2018-03-24T05:05:22.407Z,0.30
2018-03-24T05:07:50.712Z,0.20
2018-03-24T05:10:19.172Z,0.20
2018-03-24T05:12:46.809Z,0.20
2018-03-24T05:15:16.364Z,0.20
2018-03-24T05:17:43.908Z,0.20
2018-03-24T05:20:11.497Z,0.20
2018-03-24T05:22:39.032Z,0.20
2018-03-24T05:25:06.588Z,0.30
2018-03-24T05:27:34.157Z,0.30
2018-03-24T05:30:01.704Z,0.30
2018-03-24T05:32:29.258Z,0.30
2018-03-24T05:34:57.583Z,0.30
2018-03-24T05:37:25.124Z,0.30
2018-03-24T05:39:52.747Z,0.30
2018-03-24T05:42:20.325Z,0.40
2018-03-24T05:44:47.869Z,0.40
2018-03-24T05:47:17.204Z,0.40
2018-03-24T05:49:44.780Z,0.30
2018-03-24T05:52:12.608Z,0.40
2018-03-24T05:54:40.152Z,0.40
2018-03-24T05:57:08.075Z,0.40
2018-03-24T05:59:35.621Z,0.50
2018-03-24T06:02:03.176Z,0.50
2018-03-24T06:04:30.941Z,0.60
2018-03-24T06:06:58.479Z,0.60
2018-03-24T06:09:26.016Z,0.70
2018-03-24T06:11:54.384Z,0.80
2018-03-24T06:14:22.288Z,0.80
2018-03-24T06:16:49.916Z,0.90
2018-03-24T06:19:17.692Z,0.90
2018-03-24T06:21:46.046Z,1.00
2018-03-24T06:24:25.455Z,1.00
2018-03-24T06:26:53.056Z,1.00
2018-03-24T06:29:20.609Z,1.10
2018-03-24T06:31:54.039Z,1.10
2018-03-24T06:34:21.656Z,1.20
2018-03-24T06:39:48.688Z,1.30
2018-03-24T06:42:17.656Z,1.50
2018-03-24T06:44:46.045Z,1.50
2018-03-24T06:47:15.359Z,1.60
2018-03-24T06:49:42.942Z,1.60
2018-03-24T06:52:10.496Z,1.70
2018-03-24T06:54:38.963Z,1.80
2018-03-24T06:57:07.310Z,1.80
2018-03-24T06:59:35.683Z,2.10
2018-03-24T07:02:03.996Z,2.20
2018-03-24T07:04:31.568Z,2.20
2018-03-24T07:06:59.127Z,2.30
2018-03-24T07:09:26.668Z,2.50
2018-03-24T07:11:54.267Z,2.90
2018-03-24T07:14:21.804Z,3.70
2018-03-24T07:16:49.341Z,5.50
2018-03-24T07:19:17.466Z,7.40
2018-03-24T07:21:45.018Z,9.50
2018-03-24T07:24:12.565Z,11.10
2018-03-24T07:26:40.137Z,12.30
2018-03-24T07:29:07.689Z,13.10
2018-03-24T07:31:35.315Z,13.60
2018-03-24T07:34:02.892Z,14.70
2018-03-24T07:36:30.470Z,15.10
2018-03-24T07:38:58.023Z,15.30
2018-03-24T07:41:25.939Z,16.30
2018-03-24T07:43:54.292Z,17.20
2018-03-24T07:46:21.879Z,17.10
2018-03-24T07:48:49.472Z,17.80
2018-03-24T07:51:17.051Z,18.30
2018-03-24T07:53:44.653Z,18.50
2018-03-24T07:56:12.715Z,18.10
2018-03-24T07:58:40.308Z,18.50
2018-03-24T08:01:08.645Z,16.60
2018-03-24T08:03:36.640Z,16.60
2018-03-24T08:06:04.199Z,16.30
2018-03-24T08:08:31.756Z,16.20
2018-03-24T08:10:59.377Z,16.40
2018-03-24T08:13:26.954Z,17.20
2018-03-24T08:15:54.579Z,17.30
2018-03-24T13:03:13.360Z,9.70
2018-03-24T13:05:40.906Z,9.60
2018-03-24T13:08:08.488Z,9.70
2018-03-24T13:10:36.668Z,9.80
2018-03-24T13:13:04.408Z,9.90
2018-03-24T13:15:32.005Z,9.90
2018-03-24T13:17:59.645Z,9.70
2018-03-24T13:20:27.216Z,9.60
2018-03-24T13:22:54.784Z,9.70
2018-03-24T13:25:22.836Z,9.80
2018-03-24T13:27:50.420Z,9.70
2018-03-24T13:30:17.982Z,9.80
2018-03-24T13:32:45.608Z,9.90
2018-03-24T13:35:27.768Z,10.10
2018-03-24T13:45:00.412Z,10.10
2018-03-24T13:47:27.965Z,10.00
2018-03-24T13:49:55.528Z,10.00
2018-03-24T13:52:23.141Z,9.90
2018-03-24T13:54:51.876Z,10.00
2018-03-24T13:57:19.449Z,10.00
2018-03-24T13:59:47.037Z,10.00
2018-03-24T14:02:26.556Z,9.90
2018-03-24T14:09:40.568Z,9.90
2018-03-24T14:12:08.112Z,9.80
2018-03-24T14:14:35.679Z,9.60
2018-03-24T14:17:03.308Z,9.60
2018-03-24T14:19:30.870Z,9.70
2018-03-24T14:21:58.449Z,9.70
2018-03-24T14:24:26.049Z,9.80
2018-03-24T14:26:53.623Z,9.70
2018-03-24T14:29:21.268Z,9.70
2018-03-24T14:31:48.884Z,9.60
2018-03-24T14:34:17.251Z,9.60
2018-03-24T14:36:44.829Z,9.60
2018-03-24T14:39:12.475Z,9.70
2018-03-24T14:41:40.813Z,9.70
2018-03-24T14:44:09.139Z,9.70
2018-03-24T14:46:36.712Z,9.70
2018-03-24T14:49:04.281Z,9.70
2018-03-24T14:51:31.846Z,9.80
2018-03-24T14:53:59.502Z,9.70
2018-03-24T14:56:27.103Z,9.60
2018-03-24T14:58:54.654Z,9.70
2018-03-24T15:01:22.992Z,9.40
2018-03-24T15:03:50.565Z,9.30
2018-03-24T15:06:18.130Z,9.40
2018-03-24T15:08:45.916Z,9.40
2018-03-24T15:11:25.333Z,9.40
2018-03-24T15:16:28.184Z,9.50
2018-03-24T15:18:55.720Z,9.40
2018-03-24T15:21:23.261Z,9.30
2018-03-24T15:23:50.824Z,9.20
2018-03-24T15:26:18.366Z,9.20
2018-03-24T15:28:57.684Z,9.20
2018-03-24T15:31:37.013Z,9.20
2018-03-24T15:34:16.436Z,9.30
2018-03-24T15:36:44.910Z,9.20
2018-03-24T15:39:12.528Z,9.20
2018-03-24T15:41:40.098Z,9.10
2018-03-24T15:44:07.635Z,9.00
2018-03-24T15:46:35.912Z,9.00
2018-03-24T15:49:03.480Z,9.00
2018-03-24T15:51:31.020Z,8.90
2018-03-24T15:53:58.556Z,9.00
2018-03-24T15:56:26.172Z,9.10
2018-03-24T15:58:53.814Z,9.00
2018-03-24T16:01:21.352Z,8.90
2018-03-24T16:03:48.917Z,8.90
2018-03-24T16:06:16.469Z,8.90
2018-03-24T16:08:44.806Z,8.90
2018-03-24T16:11:12.480Z,8.90
2018-03-24T16:13:40.792Z,8.80
2018-03-24T16:16:09.203Z,8.80
2018-03-24T16:18:36.989Z,8.60
2018-03-24T16:21:04.532Z,8.50
2018-03-24T16:23:32.083Z,8.50
2018-03-24T16:25:59.660Z,8.50
2018-03-24T16:28:27.203Z,8.40
2018-03-24T16:30:54.749Z,8.40
2018-03-24T16:33:22.518Z,8.40
2018-03-24T16:35:50.059Z,8.20
2018-03-24T16:38:17.604Z,8.20
2018-03-24T16:40:45.824Z,8.10
2018-03-24T16:43:14.556Z,8.10
2018-03-24T16:45:42.094Z,8.10
2018-03-24T16:48:09.688Z,8.10
2018-03-24T16:50:38.563Z,8.10
2018-03-24T16:53:06.141Z,8.10
2018-03-24T16:55:33.753Z,8.00
2018-03-24T16:58:01.293Z,7.90
2018-03-24T17:00:28.840Z,7.80
2018-03-24T17:02:56.433Z,7.80
2018-03-24T17:05:23.984Z,7.70
2018-03-24T17:07:51.687Z,7.60
2018-03-24T17:10:20.204Z,7.40
2018-03-24T17:12:48.272Z,7.40
2018-03-24T17:15:17.007Z,7.30
2018-03-24T17:17:46.411Z,7.20
2018-03-24T17:20:24.024Z,7.00
2018-03-24T17:37:13.436Z,6.40
2018-03-24T17:39:43.111Z,6.20
2018-03-24T17:42:12.437Z,6.20
2018-03-24T17:44:41.778Z,6.20
2018-03-24T17:47:09.654Z,6.10
2018-03-24T17:49:39.990Z,6.00
2018-03-24T17:52:07.590Z,6.00
2018-03-24T17:54:35.241Z,6.00
2018-03-24T17:57:04.544Z,5.90
2018-03-24T17:59:32.418Z,5.80
2018-03-24T18:02:08.996Z,5.80
2018-03-24T18:04:37.304Z,5.70
2018-03-24T18:07:05.290Z,5.60
2018-03-24T18:09:33.110Z,5.60
2018-03-24T18:12:03.969Z,5.50
2018-03-24T18:14:31.753Z,5.50
2018-03-24T18:16:59.874Z,5.50
2018-03-24T18:19:28.963Z,5.40
2018-03-24T18:21:56.676Z,5.30
2018-03-24T18:24:24.256Z,5.30
2018-03-24T18:26:51.872Z,5.20
2018-03-24T18:29:22.914Z,5.20
2018-03-24T18:31:51.921Z,5.20
2018-03-24T18:34:21.313Z,5.10
2018-03-24T18:36:49.209Z,5.10
2018-03-24T18:39:17.582Z,5.00
2018-03-24T18:41:45.469Z,5.00
2018-03-24T18:44:25.624Z,5.00
2018-03-24T18:49:32.592Z,4.90
2018-03-24T18:52:00.205Z,4.80
2018-03-24T18:54:27.831Z,4.70
2018-03-24T18:56:55.460Z,4.70
2018-03-24T18:59:23.492Z,4.70
2018-03-24T19:01:52.249Z,4.60
2018-03-24T19:04:19.811Z,4.60
2018-03-24T19:06:48.450Z,4.60
2018-03-24T19:09:17.256Z,4.60
2018-03-24T19:11:45.285Z,4.60
2018-03-24T19:14:14.593Z,4.50
2018-03-24T19:16:42.203Z,4.50
2018-03-24T19:19:10.089Z,4.50
2018-03-24T19:21:37.885Z,4.50
2018-03-24T19:24:05.464Z,4.50
2018-03-24T19:26:33.057Z,4.50
2018-03-24T19:29:00.636Z,4.50
2018-03-24T19:31:28.205Z,4.40
2018-03-24T19:33:56.239Z,4.30
